Charlevoix, MI

12:04 AM EDT on August 29, 2015 (GMT -0400)
1.5 W Ironton | | Change Station
CLOSE
Current Station
Personal Weather Station
Location: Charlevoix, MI
Elevation: 750 ft
Nearby Weather Stations

Elev 750 ft 45.26 °N, 85.22 °W | Updated 12 seconds ago

Heavy Rain
Heavy Rain
64.3 °F
Feels Like 64.3 °F
N
7.0
Wind Variable Wind from West
Gusts 13.0 mph

Today
High -- | Low -- °F
--% Chance of Precip.
Yesterday
High -- | Low -- °F
Precip. -- in
6:58 AM 8:24 PM
Waxing Gibbous, 99% visible
Pressure 30.12 in
Visibility 3.0 miles
Clouds Scattered Clouds 1400 ft
Scattered Clouds 2900 ft
Overcast 6000 ft
Dew Point 61 °F
Humidity 89%
Rainfall 0.00 in
Snow Depth Not available.
UV 0 out of 12
Pollen 10.10 out of 12
Air Quality Not available.
Flu Activity Not available.
METAR KCVX 290355Z AUTO 22007KT 3SM +RA SCT014 SCT029 OVC060 18/17 A3012 RMK AO2 T01830172 402350131
Pressure 30.12 in
Visibility 3.0 miles
Clouds Scattered Clouds 1400 ft
Scattered Clouds 2900 ft
Overcast 6000 ft
Dew Point 61 °F
Humidity 89%
Rainfall 0.00 in
Snow Depth Not available.
UV 0 out of 12
Pollen 10.10 out of 12
Air Quality Not available.
Flu Activity Not available.
METAR KCVX 290355Z AUTO 22007KT 3SM +RA SCT014 SCT029 OVC060 18/17 A3012 RMK AO2 T01830172 402350131
Nowcast | as of 12:00 am EDT on August 29, 2015

At 1 am...rain and slight chance of thunderstorms. Temperature 66. Southwest winds 9 mph. At 3 am...rain and slight chance of thunderstorms. Temperature 65. Southwest winds 9 mph. At 5 am...rain and slight chance of thunderstorms. Temperature 64. Southwest winds 9 mph. At 7 am...rain and slight chance of thunderstorms. Temperature 63. South winds 8 mph.

×

10-Day Weather Forecast

×

Almanac

Astronomy

Aug. 29, 2015 Rise Set
Actual Time
Civil Twilight
Nautical Twilight
Astronomical Twilight
Moon
Length of Visible Light
Length of Day
Tomorrow will be .
, % of the Moon is Illuminated

Today's Extremes

State Highs State Lows

Community

WunderPhotos

Upload Photos

1,850,611 photos uploaded!

WunderBlogs® & News

Nearby

Air Quality

  Air Quality AQ Index Pollutant
Not available.

Snow Depth

Station Depth Elevation

Earthquake Activity

City Distance Mag. Time & Date
Minimum magnitude displayed is 2.5.

Coastal Water Temperatures

Place Temperature

Stations

Nearby Weather Stations

Station Location Temp. Windchill Dew Point Humidity Wind Precip. Elev Updated Type